Flag for Turkey

Past Weather in Malatya, Turkey — Yesterday and Last 2 Weeks

Currently: 12 °F. Clear. (Weather station: Malatya / Erhac, Turkey). See more current weather

Past Weather in Malatya — Graph

°F

Malatya Temperature Yesterday

Maximum temperature yesterday: 34 °F (at 2:20 pm)
Minimum temperature yesterday: 14 °F (at 11:50 pm)
Average temperature yesterday: 26 °F

High & Low Weather Summary for the Past Weeks

 TemperatureHumidityPressure
High52 °F (Jan 13, 8:20 pm)100% (Jan 5, 8:50 am)30.45 "Hg (Jan 5, 8:50 am)
Low10 °F (Jan 20, 3:50 am)41% (Jan 19, 3:50 pm)29.62 "Hg (Jan 17, 1:50 pm)
Average35 °F87%30.13 "Hg
* Reported Jan 5 4:20 am — Jan 20 4:50 am, Malatya. Weather by CustomWeather, © 2021

Note: Actual official high and low records may vary slightly from our data, if they occured in-between our weather recording intervals... More about our weather records

Malatya Weather History for the Previous 24 Hours

Scroll right to see more
 ConditionsComfort  
Time TempWeatherWind HumidityBarometerVisibility
4:50 am
Wed, Jan 20
12 °FClear.No wind79%30.01 "Hg10 mi
3:50 am10 °FClear.2 mph85%30.01 "Hg10 mi
2:50 am12 °FClear.3 mph85%30.01 "Hg10 mi
2:20 am12 °FClear.1 mph85%30.01 "Hg10 mi
1:50 am14 °FClear.2 mph79%30.01 "Hg10 mi
12:50 am14 °FClear.1 mph85%30.01 "Hg10 mi
12:20 am16 °FClear.2 mph79%30.01 "Hg10 mi
11:50 pm
Tue, Jan 19
14 °FClear.2 mph79%30.01 "Hg10 mi
11:20 pm16 °FClear.2 mph79%30.04 "Hg10 mi
10:50 pm18 °FPassing clouds.3 mph73%30.04 "HgN/A
10:20 pm18 °FClear.1 mph79%30.04 "Hg10 mi
9:50 pm18 °FClear.2 mph79%30.04 "Hg10 mi
9:20 pm21 °FClear.2 mph68%30.04 "Hg10 mi
8:50 pm23 °FClear.2 mph68%30.04 "Hg10 mi
8:20 pm23 °FPassing clouds.3 mph68%30.01 "HgN/A
7:50 pm23 °FPassing clouds.5 mph68%30.01 "HgN/A
7:20 pm27 °FPassing clouds.5 mph54%30.01 "HgN/A
6:50 pm27 °FClear.7 mph54%30.01 "Hg10 mi
6:20 pm28 °FClear.2 mph59%30.01 "Hg10 mi
5:50 pm28 °FPassing clouds.7 mph55%29.98 "HgN/A
5:20 pm28 °FSunny.10 mph55%29.98 "Hg10 mi
4:50 pm30 °FPassing clouds.12 mph55%29.98 "HgN/A
4:20 pm32 °FPassing clouds.13 mph44%29.98 "HgN/A
3:50 pm34 °FScattered clouds.13 mph41%29.98 "HgN/A
2:50 pm32 °FScattered clouds.6 mph60%29.98 "HgN/A
2:20 pm34 °FScattered clouds.6 mph65%29.98 "HgN/A
1:50 pm32 °FBroken clouds.6 mph69%29.98 "HgN/A
1:20 pm30 °FBroken clouds.8 mph80%29.98 "HgN/A
12:50 pm30 °FBroken clouds.6 mph80%30.01 "HgN/A
12:20 pm30 °FBroken clouds.5 mph75%30.01 "HgN/A
11:50 am30 °FBroken clouds.5 mph75%30.04 "HgN/A
11:20 am30 °FBroken clouds.2 mph75%30.04 "HgN/A
10:50 am30 °FBroken clouds.2 mph80%30.04 "HgN/A
10:20 am30 °FBroken clouds.1 mph86%30.04 "Hg4 mi
9:50 am27 °FIce fog.2 mph93%30.04 "Hg3 mi
9:20 am27 °FLight snow. Ice fog.2 mph93%30.04 "Hg2 mi
8:50 am25 °FLight snow. Ice fog.2 mph100%30.04 "Hg2 mi
8:20 am25 °FLight snow. Ice fog.1 mph100%30.04 "Hg2 mi
7:50 am25 °FLight snow. Ice fog.2 mph93%30.04 "Hg1 mi
7:20 am25 °FLight snow. Ice fog.5 mph93%30.04 "Hg1 mi
6:50 am25 °FLight snow. Ice fog.7 mph100%30.04 "Hg1 mi
6:20 am25 °FLight snow. Ice fog.6 mph100%30.04 "Hg1 mi
Weather by CustomWeather, © 2021

See weather overview